sensor_id;sensor_type;location;lat;lon;timestamp;temperature;humidity
7502;DHT22;3792;47.740;7.606;2023-06-26T00:01:09;21.00;99.90
7502;DHT22;3792;47.740;7.606;2023-06-26T00:03:36;21.00;99.90
7502;DHT22;3792;47.740;7.606;2023-06-26T00:06:03;20.90;99.90
7502;DHT22;3792;47.740;7.606;2023-06-26T00:08:30;21.00;99.90
7502;DHT22;3792;47.740;7.606;2023-06-26T00:10:59;21.10;99.90
7502;DHT22;3792;47.740;7.606;2023-06-26T00:13:26;21.10;99.90
7502;DHT22;3792;47.740;7.606;2023-06-26T00:15:53;21.10;99.90
7502;DHT22;3792;47.740;7.606;2023-06-26T00:18:20;21.20;99.90
7502;DHT22;3792;47.740;7.606;2023-06-26T00:20:48;21.30;99.90
7502;DHT22;3792;47.740;7.606;2023-06-26T00:23:17;21.10;99.90
7502;DHT22;3792;47.740;7.606;2023-06-26T00:25:44;21.00;99.90
7502;DHT22;3792;47.740;7.606;2023-06-26T00:28:12;20.90;99.90
7502;DHT22;3792;47.740;7.606;2023-06-26T00:30:39;20.80;99.90
7502;DHT22;3792;47.740;7.606;2023-06-26T00:33:06;20.80;99.90
7502;DHT22;3792;47.740;7.606;2023-06-26T00:35:33;20.80;99.90
7502;DHT22;3792;47.740;7.606;2023-06-26T00:38:01;20.90;99.90
7502;DHT22;3792;47.740;7.606;2023-06-26T00:40:28;20.90;99.90
7502;DHT22;3792;47.740;7.606;2023-06-26T00:42:55;21.00;99.90
7502;DHT22;3792;47.740;7.606;2023-06-26T00:45:24;21.00;99.90
7502;DHT22;3792;47.740;7.606;2023-06-26T00:47:51;21.10;99.90
7502;DHT22;3792;47.740;7.606;2023-06-26T00:50:18;21.10;99.90
7502;DHT22;3792;47.740;7.606;2023-06-26T00:52:46;21.00;99.90
7502;DHT22;3792;47.740;7.606;2023-06-26T00:55:13;21.00;99.90
7502;DHT22;3792;47.740;7.606;2023-06-26T00:57:40;21.00;99.90
7502;DHT22;3792;47.740;7.606;2023-06-26T01:00:09;20.90;99.90
7502;DHT22;3792;47.740;7.606;2023-06-26T01:02:38;20.90;99.90
7502;DHT22;3792;47.740;7.606;2023-06-26T01:05:06;20.80;99.90
7502;DHT22;3792;47.740;7.606;2023-06-26T01:07:36;20.70;99.90
7502;DHT22;3792;47.740;7.606;2023-06-26T01:10:04;20.70;99.90
7502;DHT22;3792;47.740;7.606;2023-06-26T01:12:33;20.80;99.90
7502;DHT22;3792;47.740;7.606;2023-06-26T01:15:00;20.80;99.90
7502;DHT22;3792;47.740;7.606;2023-06-26T01:17:28;21.00;99.90
7502;DHT22;3792;47.740;7.606;2023-06-26T01:19:59;20.80;99.90
7502;DHT22;3792;47.740;7.606;2023-06-26T01:22:33;20.70;99.90
7502;DHT22;3792;47.740;7.606;2023-06-26T01:25:17;20.70;99.90
7502;DHT22;3792;47.740;7.606;2023-06-26T01:27:50;20.80;99.90
7502;DHT22;3792;47.740;7.606;2023-06-26T01:30:18;20.70;99.90
7502;DHT22;3792;47.740;7.606;2023-06-26T01:32:47;20.80;99.90
7502;DHT22;3792;47.740;7.606;2023-06-26T01:35:15;20.70;99.90
7502;DHT22;3792;47.740;7.606;2023-06-26T01:37:42;20.70;99.90
7502;DHT22;3792;47.740;7.606;2023-06-26T01:40:10;20.60;99.90
7502;DHT22;3792;47.740;7.606;2023-06-26T01:42:37;20.70;99.90
7502;DHT22;3792;47.740;7.606;2023-06-26T01:45:12;20.70;99.90
7502;DHT22;3792;47.740;7.606;2023-06-26T01:47:41;20.70;99.90
7502;DHT22;3792;47.740;7.606;2023-06-26T01:50:14;20.70;99.90
7502;DHT22;3792;47.740;7.606;2023-06-26T01:52:48;20.80;99.90
7502;DHT22;3792;47.740;7.606;2023-06-26T01:55:26;20.80;99.90
7502;DHT22;3792;47.740;7.606;2023-06-26T01:57:56;20.70;99.90
7502;DHT22;3792;47.740;7.606;2023-06-26T02:00:26;20.80;99.90
7502;DHT22;3792;47.740;7.606;2023-06-26T02:02:54;20.70;99.90
7502;DHT22;3792;47.740;7.606;2023-06-26T02:05:23;20.70;99.90
7502;DHT22;3792;47.740;7.606;2023-06-26T02:07:50;20.60;99.90
7502;DHT22;3792;47.740;7.606;2023-06-26T02:10:18;20.60;99.90
7502;DHT22;3792;47.740;7.606;2023-06-26T02:12:45;20.60;99.90
7502;DHT22;3792;47.740;7.606;2023-06-26T02:15:12;20.60;99.90
7502;DHT22;3792;47.740;7.606;2023-06-26T02:17:40;20.60;99.90
7502;DHT22;3792;47.740;7.606;2023-06-26T02:20:08;20.60;99.90
7502;DHT22;3792;47.740;7.606;2023-06-26T02:22:36;20.70;99.90
7502;DHT22;3792;47.740;7.606;2023-06-26T02:25:03;20.80;99.90
7502;DHT22;3792;47.740;7.606;2023-06-26T02:27:31;20.70;99.90
7502;DHT22;3792;47.740;7.606;2023-06-26T02:29:58;20.60;99.90
7502;DHT22;3792;47.740;7.606;2023-06-26T02:32:25;20.50;99.90
7502;DHT22;3792;47.740;7.606;2023-06-26T02:34:53;20.60;99.90
7502;DHT22;3792;47.740;7.606;2023-06-26T02:37:20;20.60;99.90
7502;DHT22;3792;47.740;7.606;2023-06-26T02:39:48;20.60;99.90
7502;DHT22;3792;47.740;7.606;2023-06-26T02:42:15;20.60;99.90
7502;DHT22;3792;47.740;7.606;2023-06-26T02:44:42;20.60;99.90
7502;DHT22;3792;47.740;7.606;2023-06-26T02:47:09;20.60;99.90
7502;DHT22;3792;47.740;7.606;2023-06-26T02:49:36;20.60;99.90
7502;DHT22;3792;47.740;7.606;2023-06-26T02:52:05;20.60;99.90
7502;DHT22;3792;47.740;7.606;2023-06-26T02:54:32;20.60;99.90
7502;DHT22;3792;47.740;7.606;2023-06-26T02:56:59;20.50;99.90
7502;DHT22;3792;47.740;7.606;2023-06-26T02:59:26;20.40;99.90
7502;DHT22;3792;47.740;7.606;2023-06-26T03:01:53;20.40;99.90
7502;DHT22;3792;47.740;7.606;2023-06-26T03:04:20;20.50;99.90
7502;DHT22;3792;47.740;7.606;2023-06-26T03:06:48;20.40;99.90
7502;DHT22;3792;47.740;7.606;2023-06-26T03:09:16;20.40;99.90
7502;DHT22;3792;47.740;7.606;2023-06-26T03:11:43;20.30;99.90
7502;DHT22;3792;47.740;7.606;2023-06-26T03:14:10;20.40;99.90
7502;DHT22;3792;47.740;7.606;2023-06-26T03:16:37;20.40;99.90
7502;DHT22;3792;47.740;7.606;2023-06-26T03:19:04;20.40;99.90
7502;DHT22;3792;47.740;7.606;2023-06-26T03:21:32;20.40;99.90
7502;DHT22;3792;47.740;7.606;2023-06-26T03:23:59;20.30;99.90
7502;DHT22;3792;47.740;7.606;2023-06-26T03:26:27;20.30;99.90
7502;DHT22;3792;47.740;7.606;2023-06-26T03:28:54;20.30;99.90
7502;DHT22;3792;47.740;7.606;2023-06-26T03:31:22;20.30;99.90
7502;DHT22;3792;47.740;7.606;2023-06-26T03:33:49;20.30;99.90
7502;DHT22;3792;47.740;7.606;2023-06-26T03:36:16;20.40;99.90
7502;DHT22;3792;47.740;7.606;2023-06-26T03:38:43;20.40;99.90
7502;DHT22;3792;47.740;7.606;2023-06-26T03:41:10;20.40;99.90
7502;DHT22;3792;47.740;7.606;2023-06-26T03:43:39;20.30;99.90
7502;DHT22;3792;47.740;7.606;2023-06-26T03:46:06;20.30;99.90
7502;DHT22;3792;47.740;7.606;2023-06-26T03:48:33;20.30;99.90
7502;DHT22;3792;47.740;7.606;2023-06-26T03:51:00;20.30;99.90
7502;DHT22;3792;47.740;7.606;2023-06-26T03:53:28;20.30;99.90
7502;DHT22;3792;47.740;7.606;2023-06-26T03:55:55;20.30;99.90
7502;DHT22;3792;47.740;7.606;2023-06-26T03:58:22;20.30;99.90
7502;DHT22;3792;47.740;7.606;2023-06-26T04:00:50;20.40;99.90
7502;DHT22;3792;47.740;7.606;2023-06-26T04:03:17;20.40;99.90
7502;DHT22;3792;47.740;7.606;2023-06-26T04:05:44;20.40;99.90
7502;DHT22;3792;47.740;7.606;2023-06-26T04:08:11;20.50;99.90
7502;DHT22;3792;47.740;7.606;2023-06-26T04:10:38;20.60;99.90
7502;DHT22;3792;47.740;7.606;2023-06-26T04:13:05;20.50;99.90
7502;DHT22;3792;47.740;7.606;2023-06-26T04:15:32;20.40;99.90
7502;DHT22;3792;47.740;7.606;2023-06-26T04:18:00;20.40;99.90
7502;DHT22;3792;47.740;7.606;2023-06-26T04:20:28;20.40;99.90
7502;DHT22;3792;47.740;7.606;2023-06-26T04:22:56;20.50;99.90
7502;DHT22;3792;47.740;7.606;2023-06-26T04:25:23;20.60;99.90
7502;DHT22;3792;47.740;7.606;2023-06-26T04:27:54;20.60;99.90
7502;DHT22;3792;47.740;7.606;2023-06-26T04:30:21;20.60;99.90
7502;DHT22;3792;47.740;7.606;2023-06-26T04:32:48;20.80;99.90
7502;DHT22;3792;47.740;7.606;2023-06-26T04:35:17;20.80;99.90
7502;DHT22;3792;47.740;7.606;2023-06-26T04:37:45;20.80;99.90
7502;DHT22;3792;47.740;7.606;2023-06-26T04:40:12;20.70;99.90
7502;DHT22;3792;47.740;7.606;2023-06-26T04:42:39;20.60;99.90
7502;DHT22;3792;47.740;7.606;2023-06-26T04:45:07;20.60;99.90
7502;DHT22;3792;47.740;7.606;2023-06-26T04:47:34;20.60;99.90
7502;DHT22;3792;47.740;7.606;2023-06-26T04:50:01;20.60;99.90
7502;DHT22;3792;47.740;7.606;2023-06-26T04:52:29;20.60;99.90
7502;DHT22;3792;47.740;7.606;2023-06-26T04:54:56;20.70;99.90
7502;DHT22;3792;47.740;7.606;2023-06-26T04:57:23;20.80;99.90
7502;DHT22;3792;47.740;7.606;2023-06-26T04:59:50;20.90;99.90
7502;DHT22;3792;47.740;7.606;2023-06-26T05:02:17;20.90;99.90
7502;DHT22;3792;47.740;7.606;2023-06-26T05:04:44;21.00;99.90
7502;DHT22;3792;47.740;7.606;2023-06-26T05:07:12;21.20;99.90
7502;DHT22;3792;47.740;7.606;2023-06-26T05:09:41;20.80;99.90
7502;DHT22;3792;47.740;7.606;2023-06-26T05:12:08;20.90;99.90
7502;DHT22;3792;47.740;7.606;2023-06-26T05:14:35;20.90;99.90
7502;DHT22;3792;47.740;7.606;2023-06-26T05:17:02;21.10;99.90
7502;DHT22;3792;47.740;7.606;2023-06-26T05:19:29;21.20;99.90
7502;DHT22;3792;47.740;7.606;2023-06-26T05:21:56;21.40;99.90
7502;DHT22;3792;47.740;7.606;2023-06-26T05:24:24;21.40;99.90
7502;DHT22;3792;47.740;7.606;2023-06-26T05:26:53;21.50;99.90
7502;DHT22;3792;47.740;7.606;2023-06-26T05:29:21;21.60;99.90
7502;DHT22;3792;47.740;7.606;2023-06-26T05:31:49;21.60;99.90
7502;DHT22;3792;47.740;7.606;2023-06-26T05:34:17;21.70;99.90
7502;DHT22;3792;47.740;7.606;2023-06-26T05:36:48;21.80;99.90
7502;DHT22;3792;47.740;7.606;2023-06-26T05:39:16;22.00;99.90
7502;DHT22;3792;47.740;7.606;2023-06-26T05:41:44;21.90;99.90
7502;DHT22;3792;47.740;7.606;2023-06-26T05:44:12;22.00;99.90
7502;DHT22;3792;47.740;7.606;2023-06-26T05:46:40;22.20;99.90
7502;DHT22;3792;47.740;7.606;2023-06-26T05:49:07;22.30;99.90
7502;DHT22;3792;47.740;7.606;2023-06-26T05:51:34;22.30;99.90
7502;DHT22;3792;47.740;7.606;2023-06-26T05:54:01;22.40;99.90
7502;DHT22;3792;47.740;7.606;2023-06-26T05:56:29;22.40;99.90
7502;DHT22;3792;47.740;7.606;2023-06-26T05:58:57;22.50;99.90
7502;DHT22;3792;47.740;7.606;2023-06-26T06:01:26;22.40;99.90
7502;DHT22;3792;47.740;7.606;2023-06-26T06:03:53;22.50;99.90
7502;DHT22;3792;47.740;7.606;2023-06-26T06:06:20;22.50;99.90
7502;DHT22;3792;47.740;7.606;2023-06-26T06:08:47;22.60;99.90
7502;DHT22;3792;47.740;7.606;2023-06-26T06:11:14;22.70;99.90
7502;DHT22;3792;47.740;7.606;2023-06-26T06:13:41;22.90;99.90
7502;DHT22;3792;47.740;7.606;2023-06-26T06:16:08;22.90;99.90
7502;DHT22;3792;47.740;7.606;2023-06-26T06:18:37;23.00;99.90
7502;DHT22;3792;47.740;7.606;2023-06-26T06:21:03;23.10;99.90
7502;DHT22;3792;47.740;7.606;2023-06-26T06:23:30;23.30;99.90
7502;DHT22;3792;47.740;7.606;2023-06-26T06:25:57;23.50;99.90
7502;DHT22;3792;47.740;7.606;2023-06-26T06:28:24;23.60;99.90
7502;DHT22;3792;47.740;7.606;2023-06-26T06:30:51;23.80;99.90
7502;DHT22;3792;47.740;7.606;2023-06-26T06:33:18;23.90;99.90
7502;DHT22;3792;47.740;7.606;2023-06-26T06:35:47;24.10;99.90
7502;DHT22;3792;47.740;7.606;2023-06-26T06:38:14;24.20;99.90
7502;DHT22;3792;47.740;7.606;2023-06-26T06:40:41;24.30;99.90
7502;DHT22;3792;47.740;7.606;2023-06-26T06:43:08;24.40;99.90
7502;DHT22;3792;47.740;7.606;2023-06-26T06:45:35;24.60;99.90
7502;DHT22;3792;47.740;7.606;2023-06-26T06:48:03;24.80;99.90
7502;DHT22;3792;47.740;7.606;2023-06-26T06:50:30;24.80;99.90
7502;DHT22;3792;47.740;7.606;2023-06-26T06:52:59;24.80;99.90
7502;DHT22;3792;47.740;7.606;2023-06-26T06:55:26;24.90;99.90
7502;DHT22;3792;47.740;7.606;2023-06-26T06:57:53;24.80;99.90
7502;DHT22;3792;47.740;7.606;2023-06-26T07:00:20;24.90;99.90
7502;DHT22;3792;47.740;7.606;2023-06-26T07:02:47;24.90;99.90
7502;DHT22;3792;47.740;7.606;2023-06-26T07:05:14;25.00;99.90
7502;DHT22;3792;47.740;7.606;2023-06-26T07:07:41;25.20;99.90
7502;DHT22;3792;47.740;7.606;2023-06-26T07:10:12;25.20;99.90
7502;DHT22;3792;47.740;7.606;2023-06-26T07:12:39;25.40;99.90
7502;DHT22;3792;47.740;7.606;2023-06-26T07:15:07;25.50;99.90
7502;DHT22;3792;47.740;7.606;2023-06-26T07:17:34;25.60;99.90
7502;DHT22;3792;47.740;7.606;2023-06-26T07:20:04;25.60;99.90
7502;DHT22;3792;47.740;7.606;2023-06-26T07:22:32;25.60;99.90
7502;DHT22;3792;47.740;7.606;2023-06-26T07:24:59;25.60;99.90
7502;DHT22;3792;47.740;7.606;2023-06-26T07:27:28;25.70;99.90
7502;DHT22;3792;47.740;7.606;2023-06-26T07:29:55;25.70;99.90
7502;DHT22;3792;47.740;7.606;2023-06-26T07:32:22;25.70;99.90
7502;DHT22;3792;47.740;7.606;2023-06-26T07:34:49;25.80;99.90
7502;DHT22;3792;47.740;7.606;2023-06-26T07:37:16;25.90;99.90
7502;DHT22;3792;47.740;7.606;2023-06-26T07:39:43;25.90;99.90
7502;DHT22;3792;47.740;7.606;2023-06-26T07:42:10;25.90;99.90
7502;DHT22;3792;47.740;7.606;2023-06-26T07:44:38;26.00;99.90
7502;DHT22;3792;47.740;7.606;2023-06-26T07:47:05;25.90;99.90
7502;DHT22;3792;47.740;7.606;2023-06-26T07:49:32;25.80;99.90
7502;DHT22;3792;47.740;7.606;2023-06-26T07:51:59;25.90;99.90
7502;DHT22;3792;47.740;7.606;2023-06-26T07:54:26;26.00;99.90
7502;DHT22;3792;47.740;7.606;2023-06-26T07:56:55;26.00;99.90
7502;DHT22;3792;47.740;7.606;2023-06-26T07:59:24;26.00;99.90
7502;DHT22;3792;47.740;7.606;2023-06-26T08:01:53;26.10;99.90
7502;DHT22;3792;47.740;7.606;2023-06-26T08:04:22;26.10;99.90
7502;DHT22;3792;47.740;7.606;2023-06-26T08:06:49;26.20;99.90
7502;DHT22;3792;47.740;7.606;2023-06-26T08:09:19;26.20;99.90
7502;DHT22;3792;47.740;7.606;2023-06-26T08:11:46;26.20;99.90
7502;DHT22;3792;47.740;7.606;2023-06-26T08:14:15;26.40;99.90
7502;DHT22;3792;47.740;7.606;2023-06-26T08:16:43;26.60;99.90
7502;DHT22;3792;47.740;7.606;2023-06-26T08:19:12;26.50;99.90
7502;DHT22;3792;47.740;7.606;2023-06-26T08:21:39;26.30;99.90
7502;DHT22;3792;47.740;7.606;2023-06-26T08:24:07;26.20;99.90
7502;DHT22;3792;47.740;7.606;2023-06-26T08:26:34;26.30;99.90
7502;DHT22;3792;47.740;7.606;2023-06-26T08:29:02;26.40;99.90
7502;DHT22;3792;47.740;7.606;2023-06-26T08:31:33;26.50;99.90
7502;DHT22;3792;47.740;7.606;2023-06-26T08:34:01;26.70;99.90
7502;DHT22;3792;47.740;7.606;2023-06-26T08:36:30;26.70;99.90
7502;DHT22;3792;47.740;7.606;2023-06-26T08:38:57;26.80;99.90
7502;DHT22;3792;47.740;7.606;2023-06-26T08:41:25;26.80;99.90
7502;DHT22;3792;47.740;7.606;2023-06-26T08:43:52;26.60;99.90
7502;DHT22;3792;47.740;7.606;2023-06-26T08:46:19;26.60;99.90
7502;DHT22;3792;47.740;7.606;2023-06-26T08:48:49;26.70;99.90
7502;DHT22;3792;47.740;7.606;2023-06-26T08:51:23;26.70;99.90
7502;DHT22;3792;47.740;7.606;2023-06-26T08:53:57;26.80;99.90
7502;DHT22;3792;47.740;7.606;2023-06-26T08:56:25;26.90;99.90
7502;DHT22;3792;47.740;7.606;2023-06-26T08:58:54;27.10;99.90
7502;DHT22;3792;47.740;7.606;2023-06-26T09:01:22;27.20;99.90
7502;DHT22;3792;47.740;7.606;2023-06-26T09:03:50;27.30;99.90
7502;DHT22;3792;47.740;7.606;2023-06-26T09:06:17;27.40;99.90
7502;DHT22;3792;47.740;7.606;2023-06-26T09:08:44;27.40;99.90
7502;DHT22;3792;47.740;7.606;2023-06-26T09:11:13;27.60;99.90
7502;DHT22;3792;47.740;7.606;2023-06-26T09:13:41;27.60;99.90
7502;DHT22;3792;47.740;7.606;2023-06-26T09:16:09;27.60;99.90
7502;DHT22;3792;47.740;7.606;2023-06-26T09:18:36;27.80;99.90
7502;DHT22;3792;47.740;7.606;2023-06-26T09:21:07;28.10;99.90
7502;DHT22;3792;47.740;7.606;2023-06-26T09:23:34;28.30;99.90
7502;DHT22;3792;47.740;7.606;2023-06-26T09:26:02;28.50;99.30
7502;DHT22;3792;47.740;7.606;2023-06-26T09:28:32;28.40;99.20
7502;DHT22;3792;47.740;7.606;2023-06-26T09:31:02;28.30;99.20
7502;DHT22;3792;47.740;7.606;2023-06-26T09:33:33;28.20;99.40
7502;DHT22;3792;47.740;7.606;2023-06-26T09:36:01;28.10;99.10
7502;DHT22;3792;47.740;7.606;2023-06-26T09:38:28;28.00;99.70
7502;DHT22;3792;47.740;7.606;2023-06-26T09:40:55;27.80;99.80
7502;DHT22;3792;47.740;7.606;2023-06-26T09:43:23;27.80;99.70
7502;DHT22;3792;47.740;7.606;2023-06-26T09:45:52;27.70;99.70
7502;DHT22;3792;47.740;7.606;2023-06-26T09:48:20;27.60;99.80
7502;DHT22;3792;47.740;7.606;2023-06-26T09:50:48;27.70;99.90
7502;DHT22;3792;47.740;7.606;2023-06-26T09:53:15;27.60;99.90
7502;DHT22;3792;47.740;7.606;2023-06-26T09:55:44;27.50;99.90
7502;DHT22;3792;47.740;7.606;2023-06-26T09:58:12;27.50;99.90
7502;DHT22;3792;47.740;7.606;2023-06-26T10:00:41;27.30;99.90
7502;DHT22;3792;47.740;7.606;2023-06-26T10:03:10;27.20;99.90
7502;DHT22;3792;47.740;7.606;2023-06-26T10:05:38;27.40;99.90
7502;DHT22;3792;47.740;7.606;2023-06-26T10:08:05;27.40;99.90
7502;DHT22;3792;47.740;7.606;2023-06-26T10:10:34;27.30;99.90
7502;DHT22;3792;47.740;7.606;2023-06-26T10:13:11;27.30;99.90
7502;DHT22;3792;47.740;7.606;2023-06-26T10:15:40;27.30;99.90
7502;DHT22;3792;47.740;7.606;2023-06-26T10:18:11;27.30;99.90
7502;DHT22;3792;47.740;7.606;2023-06-26T10:20:40;27.30;99.90
7502;DHT22;3792;47.740;7.606;2023-06-26T10:23:09;27.20;99.90
7502;DHT22;3792;47.740;7.606;2023-06-26T10:25:38;27.30;99.90
7502;DHT22;3792;47.740;7.606;2023-06-26T10:28:08;27.10;99.90
7502;DHT22;3792;47.740;7.606;2023-06-26T10:30:37;27.10;99.90
7502;DHT22;3792;47.740;7.606;2023-06-26T10:33:06;27.10;99.90
7502;DHT22;3792;47.740;7.606;2023-06-26T10:35:43;27.20;99.90
7502;DHT22;3792;47.740;7.606;2023-06-26T10:38:11;27.20;99.90
7502;DHT22;3792;47.740;7.606;2023-06-26T10:40:42;27.20;99.90
7502;DHT22;3792;47.740;7.606;2023-06-26T10:43:12;27.10;99.90
7502;DHT22;3792;47.740;7.606;2023-06-26T10:45:43;26.90;99.90
7502;DHT22;3792;47.740;7.606;2023-06-26T10:48:14;26.90;99.90
7502;DHT22;3792;47.740;7.606;2023-06-26T10:50:42;26.90;99.90
7502;DHT22;3792;47.740;7.606;2023-06-26T10:53:15;26.90;99.90
7502;DHT22;3792;47.740;7.606;2023-06-26T10:55:55;27.10;99.90
7502;DHT22;3792;47.740;7.606;2023-06-26T10:58:33;27.20;99.90
7502;DHT22;3792;47.740;7.606;2023-06-26T11:01:20;27.30;99.90
7502;DHT22;3792;47.740;7.606;2023-06-26T11:03:49;27.20;99.90
7502;DHT22;3792;47.740;7.606;2023-06-26T11:06:19;27.50;99.90
7502;DHT22;3792;47.740;7.606;2023-06-26T11:08:47;27.60;99.90
7502;DHT22;3792;47.740;7.606;2023-06-26T11:11:15;27.60;99.90
7502;DHT22;3792;47.740;7.606;2023-06-26T11:13:44;27.40;99.90
7502;DHT22;3792;47.740;7.606;2023-06-26T11:16:11;27.20;99.90
7502;DHT22;3792;47.740;7.606;2023-06-26T11:18:38;27.50;99.90
7502;DHT22;3792;47.740;7.606;2023-06-26T11:21:06;28.00;99.90
7502;DHT22;3792;47.740;7.606;2023-06-26T11:23:36;28.20;99.90
7502;DHT22;3792;47.740;7.606;2023-06-26T11:26:16;28.20;99.90
7502;DHT22;3792;47.740;7.606;2023-06-26T11:28:51;28.30;99.90
7502;DHT22;3792;47.740;7.606;2023-06-26T11:31:27;28.20;99.90
7502;DHT22;3792;47.740;7.606;2023-06-26T11:33:55;28.30;99.90
7502;DHT22;3792;47.740;7.606;2023-06-26T11:36:24;28.70;99.90
7502;DHT22;3792;47.740;7.606;2023-06-26T11:38:56;29.00;99.90
7502;DHT22;3792;47.740;7.606;2023-06-26T11:41:25;29.50;99.20
7502;DHT22;3792;47.740;7.606;2023-06-26T11:43:53;29.80;98.40
7502;DHT22;3792;47.740;7.606;2023-06-26T11:46:21;30.30;98.20
7502;DHT22;3792;47.740;7.606;2023-06-26T11:48:49;30.70;97.20
7502;DHT22;3792;47.740;7.606;2023-06-26T11:51:16;30.90;97.00
7502;DHT22;3792;47.740;7.606;2023-06-26T11:53:44;30.90;96.10
7502;DHT22;3792;47.740;7.606;2023-06-26T11:56:15;30.70;96.00
7502;DHT22;3792;47.740;7.606;2023-06-26T11:58:58;30.40;96.20
7502;DHT22;3792;47.740;7.606;2023-06-26T12:01:27;29.90;96.20
7502;DHT22;3792;47.740;7.606;2023-06-26T12:04:01;29.80;96.90
7502;DHT22;3792;47.740;7.606;2023-06-26T12:06:29;29.60;96.10
7502;DHT22;3792;47.740;7.606;2023-06-26T12:08:57;29.80;96.30
7502;DHT22;3792;47.740;7.606;2023-06-26T12:11:50;29.70;95.70
7502;DHT22;3792;47.740;7.606;2023-06-26T12:14:51;29.40;96.20
7502;DHT22;3792;47.740;7.606;2023-06-26T12:17:32;29.10;96.00
7502;DHT22;3792;47.740;7.606;2023-06-26T12:20:00;28.70;96.20
7502;DHT22;3792;47.740;7.606;2023-06-26T12:25:45;29.20;96.60
7502;DHT22;3792;47.740;7.606;2023-06-26T12:28:17;29.70;95.70
7502;DHT22;3792;47.740;7.606;2023-06-26T12:31:16;29.80;95.80
7502;DHT22;3792;47.740;7.606;2023-06-26T12:33:43;29.90;95.20
7502;DHT22;3792;47.740;7.606;2023-06-26T12:36:11;29.90;94.20
7502;DHT22;3792;47.740;7.606;2023-06-26T12:38:39;29.90;94.20
7502;DHT22;3792;47.740;7.606;2023-06-26T12:41:12;29.90;93.90
7502;DHT22;3792;47.740;7.606;2023-06-26T12:43:42;29.80;93.80
7502;DHT22;3792;47.740;7.606;2023-06-26T12:46:10;30.00;93.50
7502;DHT22;3792;47.740;7.606;2023-06-26T12:48:38;30.30;93.30
7502;DHT22;3792;47.740;7.606;2023-06-26T12:51:13;30.30;93.00
7502;DHT22;3792;47.740;7.606;2023-06-26T12:53:42;30.10;92.90
7502;DHT22;3792;47.740;7.606;2023-06-26T12:56:10;30.10;92.30
7502;DHT22;3792;47.740;7.606;2023-06-26T12:58:38;30.10;92.20
7502;DHT22;3792;47.740;7.606;2023-06-26T13:01:08;30.10;92.60
7502;DHT22;3792;47.740;7.606;2023-06-26T13:04:02;30.30;93.20
7502;DHT22;3792;47.740;7.606;2023-06-26T13:06:29;30.40;93.10
7502;DHT22;3792;47.740;7.606;2023-06-26T13:08:58;30.10;92.40
7502;DHT22;3792;47.740;7.606;2023-06-26T13:11:25;30.30;92.40
7502;DHT22;3792;47.740;7.606;2023-06-26T13:14:06;30.40;92.40
7502;DHT22;3792;47.740;7.606;2023-06-26T13:16:38;30.00;92.10
7502;DHT22;3792;47.740;7.606;2023-06-26T13:19:06;29.60;92.10
7502;DHT22;3792;47.740;7.606;2023-06-26T13:21:39;29.20;91.90
7502;DHT22;3792;47.740;7.606;2023-06-26T13:24:08;29.40;92.30
7502;DHT22;3792;47.740;7.606;2023-06-26T13:26:36;29.70;92.30
7502;DHT22;3792;47.740;7.606;2023-06-26T13:29:30;30.00;91.70
7502;DHT22;3792;47.740;7.606;2023-06-26T13:32:00;30.40;91.60
7502;DHT22;3792;47.740;7.606;2023-06-26T13:34:30;30.70;91.00
7502;DHT22;3792;47.740;7.606;2023-06-26T13:36:58;31.00;90.00
7502;DHT22;3792;47.740;7.606;2023-06-26T13:39:28;30.80;87.90
7502;DHT22;3792;47.740;7.606;2023-06-26T13:41:55;30.90;87.50
7502;DHT22;3792;47.740;7.606;2023-06-26T13:44:22;31.10;88.20
7502;DHT22;3792;47.740;7.606;2023-06-26T13:46:49;31.20;87.70
7502;DHT22;3792;47.740;7.606;2023-06-26T13:49:18;31.40;87.60
7502;DHT22;3792;47.740;7.606;2023-06-26T13:51:45;31.30;86.90
7502;DHT22;3792;47.740;7.606;2023-06-26T13:54:13;30.90;85.70
7502;DHT22;3792;47.740;7.606;2023-06-26T13:56:40;30.80;87.40
7502;DHT22;3792;47.740;7.606;2023-06-26T13:59:08;30.90;87.00
7502;DHT22;3792;47.740;7.606;2023-06-26T14:01:35;30.90;86.70
7502;DHT22;3792;47.740;7.606;2023-06-26T14:04:02;30.80;84.60
7502;DHT22;3792;47.740;7.606;2023-06-26T14:06:30;30.70;85.80
7502;DHT22;3792;47.740;7.606;2023-06-26T14:08:58;30.80;86.60
7502;DHT22;3792;47.740;7.606;2023-06-26T14:11:25;30.50;85.70
7502;DHT22;3792;47.740;7.606;2023-06-26T14:13:52;30.40;86.50
7502;DHT22;3792;47.740;7.606;2023-06-26T14:16:19;30.40;86.50
7502;DHT22;3792;47.740;7.606;2023-06-26T14:18:46;30.50;86.90
7502;DHT22;3792;47.740;7.606;2023-06-26T14:21:13;30.40;86.40
7502;DHT22;3792;47.740;7.606;2023-06-26T14:23:42;30.30;86.40
7502;DHT22;3792;47.740;7.606;2023-06-26T14:26:09;30.50;86.40
7502;DHT22;3792;47.740;7.606;2023-06-26T14:28:36;30.50;86.50
7502;DHT22;3792;47.740;7.606;2023-06-26T14:31:04;30.70;85.80
7502;DHT22;3792;47.740;7.606;2023-06-26T14:33:31;30.70;84.80
7502;DHT22;3792;47.740;7.606;2023-06-26T14:35:58;30.70;86.10
7502;DHT22;3792;47.740;7.606;2023-06-26T14:38:25;30.80;85.20
7502;DHT22;3792;47.740;7.606;2023-06-26T14:40:53;30.70;84.60
7502;DHT22;3792;47.740;7.606;2023-06-26T14:43:20;30.70;86.00
7502;DHT22;3792;47.740;7.606;2023-06-26T14:45:48;30.70;84.60
7502;DHT22;3792;47.740;7.606;2023-06-26T14:48:15;30.50;83.90
7502;DHT22;3792;47.740;7.606;2023-06-26T14:50:46;30.50;83.90
7502;DHT22;3792;47.740;7.606;2023-06-26T14:53:14;30.50;84.40
7502;DHT22;3792;47.740;7.606;2023-06-26T14:55:41;30.40;82.80
7502;DHT22;3792;47.740;7.606;2023-06-26T14:58:10;30.20;83.80
7502;DHT22;3792;47.740;7.606;2023-06-26T15:00:37;30.20;81.90
7502;DHT22;3792;47.740;7.606;2023-06-26T15:03:04;30.10;82.40
7502;DHT22;3792;47.740;7.606;2023-06-26T15:05:32;29.90;82.50
7502;DHT22;3792;47.740;7.606;2023-06-26T15:08:00;30.10;84.00
7502;DHT22;3792;47.740;7.606;2023-06-26T15:10:27;30.40;82.40
7502;DHT22;3792;47.740;7.606;2023-06-26T15:12:54;30.50;81.30
7502;DHT22;3792;47.740;7.606;2023-06-26T15:15:24;30.40;81.50
7502;DHT22;3792;47.740;7.606;2023-06-26T15:17:51;30.40;80.90
7502;DHT22;3792;47.740;7.606;2023-06-26T15:20:18;30.30;82.50
7502;DHT22;3792;47.740;7.606;2023-06-26T15:22:45;30.50;82.30
7502;DHT22;3792;47.740;7.606;2023-06-26T15:25:12;30.50;82.30
7502;DHT22;3792;47.740;7.606;2023-06-26T15:27:39;30.40;80.50
7502;DHT22;3792;47.740;7.606;2023-06-26T15:30:07;30.40;81.00
7502;DHT22;3792;47.740;7.606;2023-06-26T15:32:36;30.40;80.90
7502;DHT22;3792;47.740;7.606;2023-06-26T15:35:05;30.60;81.90
7502;DHT22;3792;47.740;7.606;2023-06-26T15:37:32;30.50;81.50
7502;DHT22;3792;47.740;7.606;2023-06-26T15:40:00;30.20;80.00
7502;DHT22;3792;47.740;7.606;2023-06-26T15:42:27;30.10;80.20
7502;DHT22;3792;47.740;7.606;2023-06-26T15:44:54;29.90;80.70
7502;DHT22;3792;47.740;7.606;2023-06-26T15:47:22;29.90;81.40
7502;DHT22;3792;47.740;7.606;2023-06-26T15:49:50;29.70;82.20
7502;DHT22;3792;47.740;7.606;2023-06-26T15:52:17;29.80;82.50
7502;DHT22;3792;47.740;7.606;2023-06-26T15:54:44;29.80;80.60
7502;DHT22;3792;47.740;7.606;2023-06-26T15:57:12;29.80;79.80
7502;DHT22;3792;47.740;7.606;2023-06-26T15:59:39;29.70;80.40
7502;DHT22;3792;47.740;7.606;2023-06-26T16:02:06;29.80;81.30
7502;DHT22;3792;47.740;7.606;2023-06-26T16:04:33;29.90;80.80
7502;DHT22;3792;47.740;7.606;2023-06-26T16:07:02;30.00;81.30
7502;DHT22;3792;47.740;7.606;2023-06-26T16:09:29;30.10;80.30
7502;DHT22;3792;47.740;7.606;2023-06-26T16:11:57;30.10;79.00
7502;DHT22;3792;47.740;7.606;2023-06-26T16:14:24;30.00;79.50